CheckWX is a tool to help pilots better visualize weather data.  It is not intended as a substitute for an official pre-flight weather briefing.

14:40:04 UTC

KBRD METAR
Brainerd Lakes Regional Airport
Brainerd, Minnesota, USA
Current

47 mins ago

KBRD 221353Z AUTO 04011KT 10SM OVC070 07/02 A3010 RMK AO2 SLP200 T00720022
Observed
Apr-22 @ 13:53 UTC
Wind
  • 040° at 11 KTS
Visibility
10 SM
Flight Rules
VFR
Cloud Levels
  • Overcast at 7,000' AGL
Temperature
C / 45°F
Dewpoint
C / 36°F
Humidity
71%
Altimeter
30.1" Hg
Pressure
1019.32 hPa
Previous

2 hours ago

KBRD 221253Z AUTO 04013G19KT 10SM BKN080 OVC110 08/02 A3008 RMK AO2 SLP194 T00780022
Observed
Apr-22 @ 12:53 UTC
Wind
  • 040° at 13 KTS
  • Gusting to 19 KTS
Visibility
10 SM
Flight Rules
VFR
Cloud Levels
  • Broken at 8,000' AGL
  • Overcast at 11,000' AGL
Temperature
C / 46°F
Dewpoint
C / 36°F
Humidity
66%
Altimeter
30.08" Hg
Pressure
1018.62 hPa
Previous

3 hours ago

KBRD 221153Z AUTO 03013KT 10SM FEW015 BKN040 07/03 A3006 RMK AO2 SLP188 60000 70004 T00670028 10067 20061 50008
Observed
Apr-22 @ 11:53 UTC
Wind
  • 030° at 13 KTS
Visibility
10 SM
Flight Rules
VFR
Cloud Levels
  • Few at 1,500' AGL
  • Broken at 4,000' AGL
Temperature
C / 45°F
Dewpoint
C / 37°F
Humidity
76%
Altimeter
30.06" Hg
Pressure
1017.92 hPa
24 Hour Rain
0.04"